Time;durP1;ratioP1;P1;durP2;ratioP2;P2;SDS_P1;SDS_P2;PMS_P1;PMS_P2;Temp;Humidity;BMP_temperature;BMP_pressure;BME280_temperature;BME280_humidity;BME280_pressure;Samples;Min_cycle;Max_cycle;Signal;HPM_P1;HPM_P2
2022/07/01 00:02:23;;;;;;;6.65;3.95;;;;;;;26.12;48.05;94637.00;4925022;29;20296;-78
2022/07/01 00:04:49;;;;;;;9.88;4.00;;;;;;;26.09;47.96;94637.47;4914955;29;20199;-77
2022/07/01 00:07:16;;;;;;;11.15;3.63;;;;;;;26.08;48.08;94638.50;4914419;29;20228;-84
2022/07/01 00:09:43;;;;;;;7.20;4.13;;;;;;;26.06;48.41;94635.31;4914614;29;20199;-83
2022/07/01 00:12:10;;;;;;;3.92;3.35;;;;;;;26.01;48.22;94630.78;4914402;29;20671;-82
2022/07/01 00:14:39;;;;;;;3.67;3.38;;;;;;;26.00;48.28;94642.28;4914118;29;20663;-84
2022/07/01 00:17:06;;;;;;;4.35;3.95;;;;;;;25.94;48.43;94634.56;4914806;29;20183;-83
2022/07/01 00:19:33;;;;;;;4.47;3.28;;;;;;;25.80;48.42;94630.63;4914004;29;20210;-84
2022/07/01 00:22:00;;;;;;;4.28;3.88;;;;;;;25.92;48.49;94653.16;4914693;29;20687;-84
2022/07/01 00:24:27;;;;;;;5.38;3.80;;;;;;;25.80;48.56;94644.53;4914273;29;20231;-78
2022/07/01 00:26:54;;;;;;;4.05;3.75;;;;;;;25.88;48.38;94659.09;4914282;29;20239;-75
2022/07/01 00:29:21;;;;;;;3.35;3.13;;;;;;;25.84;48.51;94656.13;4914016;29;20195;-73
2022/07/01 00:31:49;;;;;;;4.00;3.60;;;;;;;25.83;48.74;94656.38;4915363;29;20188;-75
2022/07/01 00:34:16;;;;;;;4.57;3.70;;;;;;;25.81;48.67;94658.41;4914868;29;20188;-75
2022/07/01 00:36:43;;;;;;;4.95;3.22;;;;;;;25.78;49.02;94651.84;4915103;29;20196;-80
2022/07/01 00:39:10;;;;;;;5.28;3.70;;;;;;;25.76;48.74;94648.63;4914562;29;20195;-75
2022/07/01 00:41:37;;;;;;;7.40;3.35;;;;;;;25.74;48.93;94655.91;4914594;29;20301;-83
2022/07/01 00:44:04;;;;;;;7.75;4.03;;;;;;;25.70;48.97;94652.97;4914275;29;20281;-78
2022/07/01 00:46:33;;;;;;;4.70;3.53;;;;;;;25.68;49.02;94662.88;4914258;29;20192;-84
2022/07/01 00:49:01;;;;;;;5.38;3.65;;;;;;;25.68;49.04;94656.84;4914639;29;20219;-84
2022/07/01 00:51:29;;;;;;;3.78;3.45;;;;;;;25.65;49.18;94659.94;4914219;29;20192;-80
2022/07/01 00:53:58;;;;;;;4.40;3.97;;;;;;;25.62;49.51;94652.53;4914575;29;20637;-84
2022/07/01 00:56:25;;;;;;;4.60;4.00;;;;;;;25.60;49.59;94652.75;4914357;29;20210;-79
2022/07/01 00:58:52;;;;;;;4.43;3.20;;;;;;;25.58;49.71;94654.03;4914414;29;20195;-84
2022/07/01 01:01:20;;;;;;;4.45;3.47;;;;;;;25.56;49.89;94656.88;4913834;29;20199;-82
2022/07/01 01:03:47;;;;;;;5.53;3.40;;;;;;;25.51;50.00;94656.75;4914497;29;20191;-85
2022/07/01 01:06:16;;;;;;;6.38;3.75;;;;;;;25.49;49.93;94657.00;4914076;29;20200;-85
2022/07/01 01:08:43;;;;;;;3.80;3.50;;;;;;;25.49;49.99;94658.81;4913983;29;20231;-76
2022/07/01 01:11:10;;;;;;;4.35;3.95;;;;;;;25.43;49.76;94663.19;4914192;29;20296;-75
2022/07/01 01:13:37;;;;;;;5.47;3.50;;;;;;;25.45;49.95;94668.97;4914296;29;20214;-77
2022/07/01 01:16:04;;;;;;;3.78;3.42;;;;;;;25.41;50.06;94664.41;4914096;29;20207;-85
2022/07/01 01:18:31;;;;;;;5.18;3.88;;;;;;;25.40;50.14;94660.22;4914704;29;20192;-84
2022/07/01 01:20:59;;;;;;;5.32;3.78;;;;;;;25.37;50.06;94658.84;4913529;29;20199;-82
2022/07/01 01:23:26;;;;;;;5.05;3.63;;;;;;;25.34;50.38;94663.72;4914118;29;20200;-85
2022/07/01 01:25:53;;;;;;;3.42;3.13;;;;;;;25.26;50.34;94657.84;4914359;29;20195;-84
2022/07/01 01:28:20;;;;;;;6.75;3.85;;;;;;;25.28;50.38;94652.38;4913626;29;20723;-81
2022/07/01 01:30:47;;;;;;;3.58;3.28;;;;;;;25.25;50.57;94653.63;4913793;29;20687;-76
2022/07/01 01:33:13;;;;;;;4.72;3.80;;;;;;;25.24;50.56;94651.25;4916626;29;20199;-83
2022/07/01 01:35:40;;;;;;;3.45;3.25;;;;;;;25.21;50.45;94657.72;4918039;29;20196;-81
2022/07/01 01:38:09;;;;;;;4.75;3.65;;;;;;;25.19;50.39;94657.16;4917349;29;20208;-83
2022/07/01 01:40:35;;;;;;;5.15;3.88;;;;;;;25.15;50.59;94663.88;4917489;29;20654;-84
2022/07/01 01:43:02;;;;;;;5.65;3.58;;;;;;;25.16;50.80;94669.91;4917328;29;20188;-83
2022/07/01 01:45:29;;;;;;;9.40;4.10;;;;;;;25.14;50.94;94664.13;4917694;29;20579;-84
2022/07/01 01:47:58;;;;;;;6.47;3.50;;;;;;;25.12;50.99;94661.72;4917378;29;20235;-85
2022/07/01 01:50:25;;;;;;;6.35;3.97;;;;;;;25.09;50.93;94667.41;4917678;29;20195;-79
2022/07/01 01:52:52;;;;;;;4.30;3.60;;;;;;;25.07;50.96;94673.88;4917351;29;20251;-85
2022/07/01 01:55:20;;;;;;;6.18;3.58;;;;;;;25.04;51.15;94677.72;4917276;29;20210;-80
2022/07/01 01:57:47;;;;;;;4.57;3.53;;;;;;;25.02;51.25;94672.72;4916578;29;20620;-80
2022/07/01 02:00:14;;;;;;;3.97;3.60;;;;;;;24.87;51.36;94653.25;4916956;29;20195;-77
2022/07/01 02:02:41;;;;;;;5.53;3.72;;;;;;;24.98;51.58;94670.78;4917371;29;20216;-80
2022/07/01 02:05:11;;;;;;;3.72;3.42;;;;;;;24.94;51.40;94670.44;4917261;29;20560;-75
2022/07/01 02:07:38;;;;;;;4.40;3.85;;;;;;;24.95;51.43;94668.63;4916841;29;20231;-74
2022/07/01 02:10:06;;;;;;;5.22;3.85;;;;;;;24.91;51.45;94672.72;4916825;29;20211;-83
2022/07/01 02:12:34;;;;;;;4.78;3.72;;;;;;;24.90;51.60;94677.16;4916589;29;20212;-83
2022/07/01 02:15:01;;;;;;;3.95;3.38;;;;;;;24.88;51.61;94673.97;4916799;29;20215;-81
2022/07/01 02:17:28;;;;;;;3.95;3.55;;;;;;;24.88;51.65;94681.84;4916820;29;20679;-80
2022/07/01 02:19:55;;;;;;;7.90;3.97;;;;;;;24.85;51.68;94676.25;4916263;29;20722;-83
2022/07/01 02:22:22;;;;;;;4.32;3.70;;;;;;;24.84;51.87;94678.06;4916500;29;20200;-84
2022/07/01 02:24:49;;;;;;;4.65;4.05;;;;;;;24.81;51.79;94672.50;4916160;29;20199;-83
2022/07/01 02:27:16;;;;;;;4.68;3.78;;;;;;;24.76;51.96;94673.16;4916265;29;20603;-84
2022/07/01 02:29:46;;;;;;;3.45;3.15;;;;;;;24.76;51.83;94684.44;4915967;29;20733;-82
2022/07/01 02:32:13;;;;;;;4.97;3.40;;;;;;;24.76;51.96;94694.09;4916264;29;20620;-77
2022/07/01 02:34:42;;;;;;;4.95;3.65;;;;;;;24.75;51.98;94695.13;4915883;29;20207;-85
2022/07/01 02:37:09;;;;;;;7.05;4.13;;;;;;;24.71;52.05;94694.78;4916425;29;20196;-79
2022/07/01 02:39:36;;;;;;;5.57;3.78;;;;;;;24.67;52.02;94698.88;4915804;29;20188;-78
2022/07/01 02:44:49;;;;;;;6.32;3.70;;;;;;;24.68;52.31;94708.28;4916078;29;20199;-82
2022/07/01 02:47:15;;;;;;;5.55;3.40;;;;;;;24.64;52.17;94701.91;4915870;29;20692;-83
2022/07/01 02:49:42;;;;;;;6.78;3.58;;;;;;;24.64;52.30;94708.97;4916215;29;20236;-78
2022/07/01 02:52:09;;;;;;;4.97;3.67;;;;;;;24.62;52.36;94708.41;4916266;29;20200;-85
2022/07/01 02:54:37;;;;;;;4.13;3.83;;;;;;;24.55;52.47;94705.09;4915687;29;20211;-77
2022/07/01 02:57:04;;;;;;;6.63;3.85;;;;;;;24.59;52.38;94714.09;4916144;29;20295;-82
2022/07/01 02:59:31;;;;;;;5.65;3.80;;;;;;;24.53;52.64;94702.72;4916024;29;20196;-83
2022/07/01 03:01:59;;;;;;;7.57;3.83;;;;;;;24.53;52.41;94713.97;4915802;29;20199;-74
2022/07/01 03:04:26;;;;;;;5.10;3.80;;;;;;;24.55;52.93;94718.16;4915892;29;20656;-78
2022/07/01 03:06:55;;;;;;;3.85;3.55;;;;;;;24.53;52.71;94715.78;4915739;29;20267;-81
2022/07/01 03:09:21;;;;;;;6.05;3.75;;;;;;;24.55;52.87;94726.00;4916019;29;20211;-81
2022/07/01 03:11:48;;;;;;;4.07;3.67;;;;;;;24.54;52.95;94725.22;4915607;29;20207;-83
2022/07/01 03:14:15;;;;;;;3.72;3.35;;;;;;;24.53;53.05;94731.47;4917117;29;20200;-84
2022/07/01 03:16:42;;;;;;;4.43;3.63;;;;;;;24.53;52.97;94734.88;4916016;29;20583;-85
2022/07/01 03:19:10;;;;;;;6.45;3.90;;;;;;;24.55;53.07;94741.69;4915856;29;20200;-80
2022/07/01 03:21:37;;;;;;;3.70;3.33;;;;;;;24.54;53.20;94740.91;4915184;29;20196;-76
2022/07/01 03:24:04;;;;;;;5.35;4.28;;;;;;;24.56;53.08;94741.47;4915519;29;20188;-80
2022/07/01 03:26:31;;;;;;;6.97;3.90;;;;;;;24.57;53.21;94744.88;4915260;29;20616;-80
2022/07/01 03:28:59;;;;;;;5.82;3.85;;;;;;;24.58;53.26;94742.06;4915381;29;20630;-79
2022/07/01 03:31:25;;;;;;;5.22;4.25;;;;;;;24.58;53.53;94736.81;4915632;29;20187;-78
2022/07/01 03:33:52;;;;;;;8.43;4.03;;;;;;;24.57;53.38;94739.63;4915100;29;20243;-80
2022/07/01 03:36:20;;;;;;;7.28;3.70;;;;;;;24.60;53.33;94739.19;4915632;29;20202;-79
2022/07/01 03:38:47;;;;;;;4.40;4.00;;;;;;;24.61;53.59;94746.03;4915059;29;20203;-79
2022/07/01 03:41:14;;;;;;;6.82;3.83;;;;;;;24.64;53.56;94753.44;4915754;29;20208;-75
2022/07/01 03:43:41;;;;;;;6.43;3.88;;;;;;;24.63;53.67;94731.72;4915137;29;20200;-79
2022/07/01 03:46:08;;;;;;;4.15;3.47;;;;;;;24.68;53.54;94737.06;4915580;29;20200;-77
2022/07/01 03:48:34;;;;;;;6.07;3.67;;;;;;;24.69;53.76;94732.63;4914744;29;20235;-77
2022/07/01 03:51:01;;;;;;;6.68;4.57;;;;;;;24.68;53.58;94726.59;4915884;29;20590;-75
2022/07/01 03:56:14;;;;;;;5.95;4.15;;;;;;;24.80;53.59;94737.09;4914982;29;20611;-84
2022/07/01 03:58:41;;;;;;;4.78;4.28;;;;;;;24.81;53.82;94737.88;4914911;29;20592;-81
2022/07/01 04:01:07;;;;;;;7.68;3.88;;;;;;;24.86;53.88;94738.00;4915176;29;20579;-84
2022/07/01 04:03:34;;;;;;;9.73;4.10;;;;;;;24.83;53.75;94726.19;4914449;29;20619;-82
2022/07/01 04:06:01;;;;;;;6.07;4.32;;;;;;;24.96;53.59;94735.66;4914691;29;20192;-78
2022/07/01 04:08:29;;;;;;;8.80;4.18;;;;;;;24.97;53.74;94738.03;4915071;29;20238;-79
2022/07/01 04:10:56;;;;;;;7.55;4.20;;;;;;;25.04;53.67;94732.69;4914770;29;20187;-79
2022/07/01 04:13:23;;;;;;;9.32;4.55;;;;;;;25.07;53.71;94741.91;4915147;29;20227;-76
2022/07/01 04:15:51;;;;;;;7.68;4.15;;;;;;;25.14;53.71;94750.50;4915426;29;20204;-77
2022/07/01 04:18:18;;;;;;;6.47;4.47;;;;;;;25.18;53.86;94749.00;4915681;29;20208;-84
2022/07/01 04:22:32;;;;;;;6.00;4.30;;;;;;;25.21;53.84;94751.16;4915183;29;20210;-81
2022/07/01 04:23:33;;;;;;;9.20;4.90;;;;;;;25.25;54.00;94752.28;4915132;29;20227;-80
2022/07/01 04:26:01;;;;;;;8.95;4.60;;;;;;;25.26;53.94;94752.09;4914737;29;20251;-78
2022/07/01 04:28:28;;;;;;;12.50;4.72;;;;;;;25.32;53.77;94762.66;4914942;29;20256;-79
2022/07/01 04:30:55;;;;;;;9.32;4.65;;;;;;;25.34;53.76;94750.13;4915162;29;20199;-80
2022/07/01 04:33:22;;;;;;;10.73;4.53;;;;;;;25.39;53.51;94758.09;4914806;29;20195;-78
2022/07/01 04:35:48;;;;;;;10.63;4.32;;;;;;;25.44;53.43;94755.63;4914561;29;20195;-77
2022/07/01 04:38:15;;;;;;;4.55;4.13;;;;;;;25.50;53.44;94759.94;4914724;29;20219;-83
2022/07/01 04:41:58;;;;;;;4.78;4.28;;;;;;;25.55;53.22;94757.41;4913660;29;20200;-85
2022/07/01 04:43:31;;;;;;;5.95;4.88;;;;;;;25.56;53.09;94756.41;4914029;29;20728;-78
2022/07/01 04:45:58;;;;;;;10.38;4.20;;;;;;;25.63;53.07;94749.22;4914204;29;20196;-79
2022/07/01 04:48:25;;;;;;;5.25;3.85;;;;;;;25.69;53.18;94760.59;4914666;29;20227;-78
2022/07/01 04:50:51;;;;;;;5.05;4.50;;;;;;;25.73;53.02;94766.97;4916851;29;20199;-77
2022/07/01 04:53:18;;;;;;;8.40;5.05;;;;;;;25.73;53.21;94761.72;4916625;29;20204;-82
2022/07/01 04:55:47;;;;;;;5.30;4.22;;;;;;;25.80;53.18;94759.03;4914963;29;20218;-75
2022/07/01 04:58:14;;;;;;;7.72;4.13;;;;;;;25.79;53.38;94749.56;4915577;29;20203;-85
2022/07/01 05:00:40;;;;;;;8.45;5.88;;;;;;;25.89;53.00;94755.00;4916309;29;20195;-83
2022/07/01 05:03:07;;;;;;;5.45;4.55;;;;;;;25.92;52.92;94752.72;4916851;29;20200;-76
2022/07/01 05:05:34;;;;;;;7.75;4.78;;;;;;;26.01;52.83;94751.34;4916568;29;20184;-75
2022/07/01 05:08:01;;;;;;;6.47;4.43;;;;;;;26.07;52.28;94754.84;4922105;29;20192;-76
2022/07/01 05:10:29;;;;;;;5.88;4.82;;;;;;;26.08;52.26;94750.38;4918984;29;20671;-76
2022/07/01 05:12:57;;;;;;;6.80;4.72;;;;;;;26.23;52.11;94764.59;4918082;29;20192;-75
2022/07/01 05:15:24;;;;;;;7.68;3.92;;;;;;;26.42;52.72;94754.72;4917972;29;20576;-77
2022/07/01 05:23:20;;;;;;;4.95;3.90;;;;;;;27.87;54.73;94754.94;4917681;29;20210;-78
2022/07/01 05:25:47;;;;;;;9.38;4.07;;;;;;;28.59;54.38;94761.03;4917512;29;20266;-77
2022/07/01 05:28:16;;;;;;;7.00;3.75;;;;;;;29.34;53.65;94767.19;4917383;29;20709;-80
2022/07/01 05:30:43;;;;;;;5.88;3.95;;;;;;;30.12;52.59;94762.13;4918607;29;20587;-80
2022/07/01 05:33:10;;;;;;;7.18;4.18;;;;;;;30.98;51.22;94769.47;4919271;29;20583;-82
2022/07/01 05:35:37;;;;;;;6.28;3.70;;;;;;;31.71;49.49;94748.03;4918901;29;20199;-81
2022/07/01 05:38:04;;;;;;;7.28;4.05;;;;;;;32.70;47.91;94772.78;4919796;29;20196;-85
2022/07/01 05:40:31;;;;;;;4.25;3.33;;;;;;;33.58;46.40;94772.94;4919002;29;20202;-79
2022/07/01 05:42:57;;;;;;;4.28;3.20;;;;;;;34.41;44.77;94764.56;4918361;29;20188;-81
2022/07/01 05:45:26;;;;;;;8.15;3.67;;;;;;;35.27;42.85;94777.69;4917100;29;20663;-76
2022/07/01 05:47:53;;;;;;;5.50;3.50;;;;;;;36.08;41.50;94778.16;4917280;29;20199;-81
2022/07/01 05:50:20;;;;;;;6.03;3.35;;;;;;;36.87;40.13;94771.72;4917631;29;20249;-76
2022/07/01 05:52:47;;;;;;;9.40;3.53;;;;;;;37.62;38.82;94778.22;4917031;29;20192;-76
2022/07/01 05:55:20;;;;;;;7.57;3.20;;;;;;;38.32;37.57;94774.75;4917158;29;20720;-78
2022/07/01 05:57:47;;;;;;;8.95;4.03;;;;;;;39.01;36.23;94773.25;4917414;29;20192;-77
2022/07/01 06:00:15;;;;;;;5.85;3.85;;;;;;;39.63;35.32;94778.19;4917558;29;20561;-82
2022/07/01 06:02:43;;;;;;;6.95;3.40;;;;;;;40.24;34.28;94784.13;4917137;29;20727;-76
2022/07/01 06:05:13;;;;;;;7.57;3.38;;;;;;;40.81;33.74;94778.28;4918865;29;20199;-79
2022/07/01 06:07:40;;;;;;;10.00;3.70;;;;;;;41.36;32.84;94790.56;4918268;29;20251;-83
2022/07/01 06:10:09;;;;;;;7.47;3.13;;;;;;;41.91;31.91;94783.25;4917645;29;20563;-80
2022/07/01 06:12:36;;;;;;;8.35;3.67;;;;;;;42.42;31.52;94786.41;4917037;29;20200;-84
2022/07/01 06:15:03;;;;;;;10.25;3.60;;;;;;;42.93;30.91;94788.66;4917417;29;20195;-78
2022/07/01 06:17:30;;;;;;;4.55;3.33;;;;;;;43.37;29.88;94786.03;4915957;29;20203;-84
2022/07/01 06:27:05;;;;;;;9.77;3.50;;;;;;;44.93;27.63;94796.31;4803874;29;20314;-77
2022/07/01 06:29:32;;;;;;;9.48;3.50;;;;;;;45.32;26.98;94797.13;4817015;29;20333;-76
2022/07/01 06:31:59;;;;;;;8.13;3.58;;;;;;;45.66;26.66;94800.84;4858078;29;20703;-78
2022/07/01 06:34:26;;;;;;;7.20;3.30;;;;;;;45.96;26.77;94792.09;4857964;29;20936;-82
2022/07/01 06:36:55;;;;;;;6.70;3.30;;;;;;;46.29;25.95;94791.47;4858435;29;20198;-78
2022/07/01 06:39:25;;;;;;;6.25;3.38;;;;;;;46.64;26.13;94804.78;4859778;29;20216;-80
2022/07/01 06:41:51;;;;;;;6.30;3.30;;;;;;;46.90;25.27;94798.53;4859229;29;20645;-76
2022/07/01 06:44:20;;;;;;;6.47;3.22;;;;;;;47.17;25.04;94796.53;4859936;29;20239;-78
2022/07/01 06:46:47;;;;;;;8.38;3.03;;;;;;;47.42;25.03;94801.50;4858930;29;20208;-80
2022/07/01 06:49:14;;;;;;;7.22;3.20;;;;;;;47.64;24.61;94795.13;4858296;29;20225;-78
2022/07/01 06:51:41;;;;;;;3.42;3.13;;;;;;;47.82;23.97;94789.88;4878960;29;20196;-83
2022/07/01 06:54:08;;;;;;;4.18;3.30;;;;;;;47.99;24.19;94783.03;4897285;29;20236;-83
2022/07/01 06:56:35;;;;;;;8.23;3.75;;;;;;;48.23;24.19;94796.06;4898152;29;20278;-81
2022/07/01 06:59:02;;;;;;;6.28;3.55;;;;;;;48.38;23.49;94782.56;4897319;29;20882;-77
2022/07/01 07:01:30;;;;;;;5.80;3.20;;;;;;;48.64;23.42;94789.72;4898479;29;20183;-85
2022/07/01 07:04:42;;;;;;;;;;;;;;;;;;;;;
2022/07/01 07:08:10;;;;;;;7.78;3.50;;;;;;;49.07;23.00;94787.22;4900127;29;20203;-81
2022/07/01 07:10:37;;;;;;;5.55;3.35;;;;;;;48.69;22.96;94707.88;4886561;29;20635;-82
2022/07/01 07:13:04;;;;;;;6.18;3.85;;;;;;;49.42;22.68;94800.94;4898592;29;20192;-85
2022/07/01 07:15:31;;;;;;;6.93;3.50;;;;;;;49.45;22.83;94777.63;4899989;29;20200;-77
2022/07/01 07:17:59;;;;;;;4.95;3.88;;;;;;;49.69;22.48;94795.16;4896673;29;20196;-78
2022/07/01 07:20:27;;;;;;;5.75;4.00;;;;;;;49.81;22.26;94789.34;4897761;29;20286;-83
2022/07/01 07:22:54;;;;;;;5.85;3.63;;;;;;;49.95;22.09;94804.91;4896210;29;20195;-79
2022/07/01 07:25:21;;;;;;;5.63;3.58;;;;;;;50.05;22.02;94798.72;4896659;29;20192;-82
2022/07/01 07:27:48;;;;;;;7.97;4.30;;;;;;;50.15;22.23;94799.88;4908046;29;20222;-81
2022/07/01 07:30:15;;;;;;;7.35;4.15;;;;;;;50.13;21.90;94785.88;4915348;29;20622;-77
2022/07/01 07:32:43;;;;;;;8.43;4.07;;;;;;;50.27;22.13;94787.84;4915245;29;20191;-76
2022/07/01 07:35:12;;;;;;;7.35;3.95;;;;;;;50.32;22.05;94788.22;4915463;29;20226;-81
2022/07/01 07:37:40;;;;;;;9.30;3.80;;;;;;;50.39;21.78;94804.50;4915360;29;20281;-76
2022/07/01 07:40:09;;;;;;;9.93;4.10;;;;;;;50.44;21.58;94800.66;4915310;29;20199;-78
2022/07/01 07:42:38;;;;;;;7.72;4.05;;;;;;;50.45;21.89;94799.47;4914898;29;20199;-76
2022/07/01 07:45:06;;;;;;;8.45;3.90;;;;;;;50.35;21.76;94783.91;4915700;29;20195;-76
2022/07/01 07:47:33;;;;;;;8.90;4.75;;;;;;;50.41;21.32;94795.97;4915219;29;20187;-76
2022/07/01 07:50:01;;;;;;;6.10;4.40;;;;;;;50.38;21.73;94792.06;4914868;29;20309;-76
2022/07/01 07:52:29;;;;;;;4.65;3.80;;;;;;;50.34;21.48;94787.81;4915090;29;20201;-78
2022/07/01 07:54:56;;;;;;;5.57;4.05;;;;;;;50.32;21.80;94792.88;4914925;29;20282;-86
2022/07/01 07:57:23;;;;;;;8.07;4.15;;;;;;;50.25;21.40;94790.94;4914955;29;20187;-85
2022/07/01 07:59:50;;;;;;;11.65;4.53;;;;;;;50.18;21.69;94796.41;4914674;29;20278;-79
2022/07/01 08:02:17;;;;;;;8.18;4.72;;;;;;;50.09;21.50;94794.06;4914764;29;20195;-75
2022/07/01 08:04:44;;;;;;;8.80;4.50;;;;;;;50.02;21.39;94788.59;4914551;29;20654;-78
2022/07/01 08:07:10;;;;;;;4.82;3.97;;;;;;;49.94;21.58;94785.09;4914691;29;20603;-79
2022/07/01 08:09:41;;;;;;;8.73;4.68;;;;;;;49.87;21.70;94787.03;4914334;29;20223;-77
2022/07/01 08:12:09;;;;;;;10.45;4.68;;;;;;;49.79;21.75;94783.53;4914895;29;20238;-84
2022/07/01 08:14:36;;;;;;;8.52;5.30;;;;;;;49.61;21.52;94772.63;4916225;29;20217;-75
2022/07/01 08:17:03;;;;;;;9.77;5.25;;;;;;;49.57;21.68;94769.13;4914550;29;20199;-76
2022/07/01 08:19:29;;;;;;;7.68;4.88;;;;;;;49.52;21.98;94774.16;4914313;29;20191;-75
2022/07/01 08:21:56;;;;;;;5.78;5.03;;;;;;;49.41;21.52;94774.91;4914529;29;20195;-80
2022/07/01 08:24:24;;;;;;;7.50;4.75;;;;;;;49.31;22.21;94770.22;4914129;29;20666;-76
2022/07/01 08:26:52;;;;;;;7.82;5.03;;;;;;;49.17;22.08;94768.25;4914227;29;20227;-75
2022/07/01 08:29:19;;;;;;;11.40;5.32;;;;;;;49.05;21.80;94765.84;4914542;29;20195;-79
2022/07/01 08:31:46;;;;;;;8.77;5.53;;;;;;;48.91;22.09;94761.16;4914846;29;20187;-82
2022/07/01 08:34:12;;;;;;;14.18;5.40;;;;;;;48.65;21.84;94751.31;4914790;29;20202;-87
2022/07/01 08:36:39;;;;;;;8.68;5.93;;;;;;;48.60;22.50;94757.13;4914016;29;20590;-83
2022/07/01 08:39:06;;;;;;;8.68;5.53;;;;;;;48.48;21.89;94763.66;4914321;29;20217;-84
2022/07/01 08:41:33;;;;;;;9.32;5.38;;;;;;;48.32;22.51;94757.72;4918378;29;20226;-75
2022/07/01 08:44:02;;;;;;;6.25;5.30;;;;;;;48.14;22.18;94757.59;4920854;29;20199;-77
2022/07/01 08:46:29;;;;;;;9.63;5.13;;;;;;;48.01;22.38;94767.16;4921534;29;20194;-75
2022/07/01 08:48:55;;;;;;;7.30;5.32;;;;;;;47.83;22.82;94760.81;4921658;29;20217;-78
2022/07/01 08:51:22;;;;;;;8.52;5.22;;;;;;;47.68;22.44;94765.38;4920760;29;20308;-78
2022/07/01 08:53:49;;;;;;;6.80;4.85;;;;;;;47.51;23.03;94764.78;4920260;29;20316;-76
2022/07/01 08:59:02;;;;;;;5.53;4.50;;;;;;;47.14;22.73;94766.69;4920379;29;20282;-77
2022/07/01 09:01:29;;;;;;;7.18;4.20;;;;;;;46.98;22.93;94759.59;4920451;29;20195;-76
2022/07/01 09:04:13;;;;;;;10.23;4.53;;;;;;;46.82;22.61;94772.50;4920820;29;20195;-77
2022/07/01 09:06:40;;;;;;;7.43;3.92;;;;;;;46.59;23.24;94755.56;4920391;29;20207;-80
2022/07/01 09:09:12;;;;;;;4.55;3.40;;;;;;;46.44;22.93;94760.78;4920806;29;20196;-83
2022/07/01 09:11:45;;;;;;;4.60;4.07;;;;;;;46.26;22.95;94765.16;4920602;29;20187;-76
2022/07/01 09:14:17;;;;;;;5.95;3.90;;;;;;;46.08;23.54;94764.09;4922466;29;20297;-76
2022/07/01 09:16:46;;;;;;;4.60;3.72;;;;;;;45.89;23.53;94757.63;4921548;29;20291;-76
2022/07/01 09:19:14;;;;;;;7.90;4.00;;;;;;;45.71;23.33;94761.94;4920293;29;20201;-76
2022/07/01 09:21:42;;;;;;;10.30;4.32;;;;;;;45.50;23.69;94760.41;4920691;29;20246;-75
2022/07/01 09:24:25;;;;;;;6.07;4.28;;;;;;;45.31;23.83;94757.75;4920780;29;20207;-79
2022/07/01 09:26:57;;;;;;;5.10;3.80;;;;;;;45.14;24.09;94758.19;4920091;29;20928;-79
2022/07/01 09:29:33;;;;;;;5.10;3.40;;;;;;;44.94;23.97;94757.38;4921194;29;20195;-75
2022/07/01 09:32:02;;;;;;;5.03;3.75;;;;;;;44.79;23.72;94750.94;4922418;29;20203;-80
2022/07/01 09:34:39;;;;;;;4.32;3.83;;;;;;;44.52;24.47;94734.56;4923283;29;20222;-79
2022/07/01 09:37:06;;;;;;;4.35;3.95;;;;;;;44.21;24.07;94719.19;4924870;29;20721;-83
2022/07/01 09:40:16;;;;;;;5.18;3.83;;;;;;;43.99;24.24;94704.47;4922711;29;20222;-85
2022/07/01 09:42:46;;;;;;;9.40;3.92;;;;;;;43.87;24.58;94709.97;4922238;29;20195;-77
2022/07/01 09:45:15;;;;;;;8.55;4.15;;;;;;;43.89;24.29;94739.28;4925346;29;20730;-75
2022/07/01 09:47:43;;;;;;;5.35;3.58;;;;;;;43.73;24.60;94739.25;4924419;29;20198;-75
2022/07/01 09:50:11;;;;;;;4.57;3.88;;;;;;;43.57;24.56;94737.34;4923865;29;20265;-77
2022/07/01 09:52:39;;;;;;;6.65;4.00;;;;;;;43.39;24.50;94729.91;4920617;29;20206;-75
2022/07/01 09:55:07;;;;;;;4.85;3.80;;;;;;;43.19;24.30;94727.13;4918278;29;20311;-75
2022/07/01 09:57:34;;;;;;;5.32;3.38;;;;;;;43.00;24.06;94716.19;4917435;29;20202;-77
2022/07/01 10:00:02;;;;;;;6.40;3.50;;;;;;;42.92;24.10;94722.50;4917665;29;20205;-77
2022/07/01 10:02:31;;;;;;;3.67;3.38;;;;;;;42.75;24.50;94723.56;4918819;29;20191;-76
2022/07/01 10:05:03;;;;;;;5.40;3.47;;;;;;;42.59;24.14;94723.50;4917273;29;20202;-75
2022/07/01 10:07:43;;;;;;;3.42;2.90;;;;;;;42.44;24.45;94716.13;4918222;29;20262;-76
2022/07/01 10:10:25;;;;;;;4.53;3.30;;;;;;;42.27;24.56;94717.16;4917598;29;20230;-79
2022/07/01 10:12:54;;;;;;;3.67;3.33;;;;;;;42.13;24.21;94716.72;4917511;29;20187;-75
2022/07/01 10:15:22;;;;;;;4.53;3.17;;;;;;;41.97;24.67;94724.66;4916886;29;20195;-78
2022/07/01 10:17:52;;;;;;;4.65;3.47;;;;;;;41.83;24.88;94720.44;4919226;29;20647;-76
2022/07/01 10:20:26;;;;;;;5.00;3.17;;;;;;;41.71;24.88;94712.31;4916892;29;20184;-78
2022/07/01 10:23:01;;;;;;;5.32;3.50;;;;;;;41.52;24.97;94701.38;4916134;29;20746;-74
2022/07/01 10:25:39;;;;;;;5.22;3.20;;;;;;;41.44;24.95;94712.97;4916506;29;20582;-77
2022/07/01 10:28:19;;;;;;;5.28;3.17;;;;;;;41.28;24.64;94712.81;4916389;29;20641;-75
2022/07/01 10:31:11;;;;;;;4.30;3.10;;;;;;;41.14;24.83;94706.97;4917273;29;20222;-74
2022/07/01 10:33:46;;;;;;;3.35;3.08;;;;;;;40.98;24.66;94704.13;4916756;29;20204;-75
2022/07/01 10:36:29;;;;;;;4.53;3.58;;;;;;;40.81;24.82;94700.47;4916631;29;20191;-75
2022/07/01 10:39:17;;;;;;;4.68;3.22;;;;;;;40.67;24.89;94694.59;4914810;29;20813;-77
2022/07/01 10:42:01;;;;;;;5.82;3.25;;;;;;;40.55;24.14;94694.56;4915885;29;20283;-76
2022/07/01 10:44:29;;;;;;;4.07;3.20;;;;;;;40.35;24.39;94675.41;4916097;29;20231;-74
2022/07/01 10:46:58;;;;;;;6.72;3.17;;;;;;;40.32;24.46;94683.31;4915743;29;20214;-78
2022/07/01 10:49:58;;;;;;;4.85;3.08;;;;;;;40.18;24.94;94669.41;4916396;29;20188;-76
2022/07/01 10:52:26;;;;;;;6.90;3.50;;;;;;;40.07;24.29;94672.47;4857707;29;20208;-78
2022/07/01 10:54:55;;;;;;;5.30;3.10;;;;;;;39.92;24.18;94664.97;4857764;29;20297;-75
2022/07/01 10:57:28;;;;;;;6.15;3.60;;;;;;;39.85;24.31;94678.88;4857657;29;20680;-76
2022/07/01 10:59:56;;;;;;;3.20;3.00;;;;;;;39.74;24.19;94668.88;4857304;29;20202;-76
2022/07/01 11:02:24;;;;;;;3.53;3.22;;;;;;;39.63;24.34;94677.22;4857578;29;20257;-75
2022/07/01 11:04:53;;;;;;;4.53;3.58;;;;;;;39.56;24.33;94674.28;4857122;29;20235;-73
2022/07/01 11:10:32;;;;;;;3.63;3.33;;;;;;;39.36;24.50;94674.97;4858035;29;20240;-81
2022/07/01 11:13:00;;;;;;;4.03;3.70;;;;;;;39.27;24.47;94672.34;4860640;29;20229;-79
2022/07/01 11:15:29;;;;;;;3.97;3.65;;;;;;;39.20;24.59;94672.00;4859468;29;20276;-81
2022/07/01 11:17:59;;;;;;;4.30;3.92;;;;;;;38.84;24.48;94621.59;4858512;29;20205;-81
2022/07/01 11:20:28;;;;;;;4.45;3.70;;;;;;;39.01;24.47;94664.34;4858181;29;20197;-86
2022/07/01 11:22:57;;;;;;;7.25;3.50;;;;;;;39.00;24.46;94659.34;4859306;29;20198;-84
2022/07/01 11:25:28;;;;;;;5.50;3.58;;;;;;;38.96;24.30;94664.53;4862408;29;20363;-87
2022/07/01 11:27:56;;;;;;;3.67;3.38;;;;;;;38.91;24.27;94663.94;4915596;29;20735;-81
2022/07/01 11:30:23;;;;;;;3.55;3.25;;;;;;;38.83;24.08;94658.25;4916344;29;20238;-82
2022/07/01 11:32:52;;;;;;;4.43;3.70;;;;;;;38.78;24.00;94654.97;4915617;29;20203;-82
2022/07/01 11:40:51;;;;;;;5.45;3.55;;;;;;;38.53;24.43;94653.88;4915352;29;20201;-80
2022/07/01 11:43:27;;;;;;;5.57;4.20;;;;;;;38.42;24.74;94645.38;4915365;29;20270;-85
2022/07/01 11:45:55;;;;;;;3.53;3.28;;;;;;;38.35;24.66;94642.41;4914950;29;20199;-78
2022/07/01 11:48:49;;;;;;;7.15;3.55;;;;;;;38.25;24.72;94637.31;4915201;29;20228;-85
2022/07/01 11:51:18;;;;;;;4.70;3.45;;;;;;;38.22;24.40;94640.66;4915046;29;20282;-85
2022/07/01 11:53:48;;;;;;;3.63;3.33;;;;;;;38.18;24.73;94642.38;4914871;29;20210;-77
2022/07/01 11:56:48;;;;;;;3.78;3.40;;;;;;;38.15;24.69;94635.75;4915689;29;20204;-86
2022/07/01 11:59:24;;;;;;;3.65;3.30;;;;;;;38.14;24.80;94631.53;4861970;29;20293;-83
2022/07/01 12:02:03;;;;;;;3.83;3.40;;;;;;;38.14;24.66;94628.84;4861522;29;20201;-80
2022/07/01 12:04:31;;;;;;;4.65;3.40;;;;;;;38.14;24.91;94620.84;4845056;29;20204;-81
2022/07/01 12:06:59;;;;;;;3.58;3.28;;;;;;;38.15;25.10;94615.16;4859127;29;20270;-83
2022/07/01 12:09:28;;;;;;;3.78;2.95;;;;;;;38.20;25.00;94621.47;4856610;29;20202;-76
2022/07/01 12:11:55;;;;;;;4.50;3.22;;;;;;;38.24;25.02;94614.38;4856110;29;20746;-77
2022/07/01 12:14:24;;;;;;;3.83;3.45;;;;;;;38.26;24.83;94612.97;4856533;29;20189;-85